sensor_id;sensor_type;location;lat;lon;timestamp;P1;durP1;ratioP1;P2;durP2;ratioP2
56343;SDS011;42245;42.058;24.700;2023-06-24T00:01:31;16.55;;;13.07;;
56343;SDS011;42245;42.058;24.700;2023-06-24T00:03:57;18.20;;;13.77;;
56343;SDS011;42245;42.058;24.700;2023-06-24T00:06:22;16.17;;;14.07;;
56343;SDS011;42245;42.058;24.700;2023-06-24T00:08:51;19.17;;;13.70;;
56343;SDS011;42245;42.058;24.700;2023-06-24T00:11:17;19.33;;;13.43;;
56343;SDS011;42245;42.058;24.700;2023-06-24T00:13:43;15.73;;;13.48;;
56343;SDS011;42245;42.058;24.700;2023-06-24T00:16:09;16.88;;;13.40;;
56343;SDS011;42245;42.058;24.700;2023-06-24T00:18:35;18.35;;;14.10;;
56343;SDS011;42245;42.058;24.700;2023-06-24T00:21:02;15.75;;;13.60;;
56343;SDS011;42245;42.058;24.700;2023-06-24T00:23:28;15.68;;;13.80;;
56343;SDS011;42245;42.058;24.700;2023-06-24T00:25:55;17.05;;;13.65;;
56343;SDS011;42245;42.058;24.700;2023-06-24T00:28:21;20.98;;;14.30;;
56343;SDS011;42245;42.058;24.700;2023-06-24T00:30:47;15.95;;;13.52;;
56343;SDS011;42245;42.058;24.700;2023-06-24T00:33:13;19.98;;;14.23;;
56343;SDS011;42245;42.058;24.700;2023-06-24T00:35:39;21.75;;;14.13;;
56343;SDS011;42245;42.058;24.700;2023-06-24T00:38:05;16.13;;;14.02;;
56343;SDS011;42245;42.058;24.700;2023-06-24T00:40:31;17.45;;;13.93;;
56343;SDS011;42245;42.058;24.700;2023-06-24T00:42:56;17.45;;;14.10;;
56343;SDS011;42245;42.058;24.700;2023-06-24T00:45:22;16.77;;;13.50;;
56343;SDS011;42245;42.058;24.700;2023-06-24T00:47:48;17.77;;;13.68;;
56343;SDS011;42245;42.058;24.700;2023-06-24T00:50:14;16.85;;;13.68;;
56343;SDS011;42245;42.058;24.700;2023-06-24T00:52:40;15.68;;;14.05;;
56343;SDS011;42245;42.058;24.700;2023-06-24T00:55:12;17.92;;;13.93;;
56343;SDS011;42245;42.058;24.700;2023-06-24T00:57:44;16.25;;;13.57;;
56343;SDS011;42245;42.058;24.700;2023-06-24T01:00:10;18.25;;;14.48;;
56343;SDS011;42245;42.058;24.700;2023-06-24T01:02:41;17.30;;;13.95;;
56343;SDS011;42245;42.058;24.700;2023-06-24T01:05:07;16.05;;;14.07;;
56343;SDS011;42245;42.058;24.700;2023-06-24T01:07:33;19.05;;;13.90;;
56343;SDS011;42245;42.058;24.700;2023-06-24T01:10:03;18.85;;;14.52;;
56343;SDS011;42245;42.058;24.700;2023-06-24T01:12:36;15.50;;;13.90;;
56343;SDS011;42245;42.058;24.700;2023-06-24T01:15:09;15.88;;;14.15;;
56343;SDS011;42245;42.058;24.700;2023-06-24T01:34:01;15.05;;;13.38;;
56343;SDS011;42245;42.058;24.700;2023-06-24T01:36:31;16.25;;;13.80;;
56343;SDS011;42245;42.058;24.700;2023-06-24T01:39:01;15.93;;;13.88;;
56343;SDS011;42245;42.058;24.700;2023-06-24T01:41:30;16.10;;;13.55;;
56343;SDS011;42245;42.058;24.700;2023-06-24T01:43:57;18.73;;;13.50;;
56343;SDS011;42245;42.058;24.700;2023-06-24T01:46:23;16.50;;;14.18;;
56343;SDS011;42245;42.058;24.700;2023-06-24T01:48:50;16.13;;;14.25;;
56343;SDS011;42245;42.058;24.700;2023-06-24T01:51:20;19.13;;;14.27;;
56343;SDS011;42245;42.058;24.700;2023-06-24T01:53:58;16.63;;;14.10;;
56343;SDS011;42245;42.058;24.700;2023-06-24T01:56:25;19.63;;;14.10;;
56343;SDS011;42245;42.058;24.700;2023-06-24T01:58:52;17.38;;;13.38;;
56343;SDS011;42245;42.058;24.700;2023-06-24T02:01:18;15.52;;;13.60;;
56343;SDS011;42245;42.058;24.700;2023-06-24T02:03:44;17.55;;;14.43;;
56343;SDS011;42245;42.058;24.700;2023-06-24T02:06:10;16.30;;;13.93;;
56343;SDS011;42245;42.058;24.700;2023-06-24T02:08:37;18.23;;;14.48;;
56343;SDS011;42245;42.058;24.700;2023-06-24T02:11:03;15.27;;;13.68;;
56343;SDS011;42245;42.058;24.700;2023-06-24T02:13:29;19.40;;;14.45;;
56343;SDS011;42245;42.058;24.700;2023-06-24T02:15:57;16.30;;;14.00;;
56343;SDS011;42245;42.058;24.700;2023-06-24T02:18:24;20.48;;;15.18;;
56343;SDS011;42245;42.058;24.700;2023-06-24T02:20:52;17.27;;;14.55;;
56343;SDS011;42245;42.058;24.700;2023-06-24T02:23:18;17.35;;;14.40;;
56343;SDS011;42245;42.058;24.700;2023-06-24T02:25:45;19.10;;;14.48;;
56343;SDS011;42245;42.058;24.700;2023-06-24T02:28:10;18.17;;;14.75;;
56343;SDS011;42245;42.058;24.700;2023-06-24T02:30:37;17.65;;;14.82;;
56343;SDS011;42245;42.058;24.700;2023-06-24T02:33:03;18.17;;;14.43;;
56343;SDS011;42245;42.058;24.700;2023-06-24T02:35:29;17.65;;;15.20;;
56343;SDS011;42245;42.058;24.700;2023-06-24T02:37:54;17.88;;;15.40;;
56343;SDS011;42245;42.058;24.700;2023-06-24T02:40:19;17.23;;;14.82;;
56343;SDS011;42245;42.058;24.700;2023-06-24T02:42:45;16.40;;;13.82;;
56343;SDS011;42245;42.058;24.700;2023-06-24T02:45:10;26.38;;;15.13;;
56343;SDS011;42245;42.058;24.700;2023-06-24T02:47:36;19.13;;;13.98;;
56343;SDS011;42245;42.058;24.700;2023-06-24T02:50:05;21.75;;;14.88;;
56343;SDS011;42245;42.058;24.700;2023-06-24T02:52:32;18.40;;;15.00;;
56343;SDS011;42245;42.058;24.700;2023-06-24T02:54:57;19.70;;;15.38;;
56343;SDS011;42245;42.058;24.700;2023-06-24T02:57:26;18.65;;;15.07;;
56343;SDS011;42245;42.058;24.700;2023-06-24T02:59:52;16.90;;;15.10;;
56343;SDS011;42245;42.058;24.700;2023-06-24T03:02:17;20.98;;;15.23;;
56343;SDS011;42245;42.058;24.700;2023-06-24T03:04:43;17.98;;;16.00;;
56343;SDS011;42245;42.058;24.700;2023-06-24T03:07:09;17.58;;;15.05;;
56343;SDS011;42245;42.058;24.700;2023-06-24T03:09:35;17.85;;;15.40;;
56343;SDS011;42245;42.058;24.700;2023-06-24T03:12:01;19.75;;;15.00;;
56343;SDS011;42245;42.058;24.700;2023-06-24T03:14:27;17.27;;;14.88;;
56343;SDS011;42245;42.058;24.700;2023-06-24T03:16:52;19.02;;;15.30;;
56343;SDS011;42245;42.058;24.700;2023-06-24T03:19:17;18.15;;;15.23;;
56343;SDS011;42245;42.058;24.700;2023-06-24T03:21:43;18.38;;;15.52;;
56343;SDS011;42245;42.058;24.700;2023-06-24T03:24:08;16.83;;;14.73;;
56343;SDS011;42245;42.058;24.700;2023-06-24T03:26:37;21.13;;;15.05;;
56343;SDS011;42245;42.058;24.700;2023-06-24T03:29:03;18.60;;;15.70;;
56343;SDS011;42245;42.058;24.700;2023-06-24T03:31:29;17.95;;;15.43;;
56343;SDS011;42245;42.058;24.700;2023-06-24T03:33:55;18.25;;;15.82;;
56343;SDS011;42245;42.058;24.700;2023-06-24T03:36:20;20.92;;;15.68;;
56343;SDS011;42245;42.058;24.700;2023-06-24T03:38:46;16.60;;;14.70;;
56343;SDS011;42245;42.058;24.700;2023-06-24T03:41:11;19.10;;;15.40;;
56343;SDS011;42245;42.058;24.700;2023-06-24T03:43:37;18.35;;;15.82;;
56343;SDS011;42245;42.058;24.700;2023-06-24T03:46:03;20.15;;;15.98;;
56343;SDS011;42245;42.058;24.700;2023-06-24T03:48:28;18.30;;;14.73;;
56343;SDS011;42245;42.058;24.700;2023-06-24T03:50:53;18.40;;;14.68;;
56343;SDS011;42245;42.058;24.700;2023-06-24T03:53:19;20.90;;;16.13;;
56343;SDS011;42245;42.058;24.700;2023-06-24T03:55:44;19.83;;;15.38;;
56343;SDS011;42245;42.058;24.700;2023-06-24T03:58:10;24.77;;;15.98;;
56343;SDS011;42245;42.058;24.700;2023-06-24T04:00:35;21.60;;;15.75;;
56343;SDS011;42245;42.058;24.700;2023-06-24T04:03:05;17.23;;;15.25;;
56343;SDS011;42245;42.058;24.700;2023-06-24T04:05:33;18.30;;;15.55;;
56343;SDS011;42245;42.058;24.700;2023-06-24T04:07:59;19.10;;;15.93;;
56343;SDS011;42245;42.058;24.700;2023-06-24T04:10:24;16.88;;;14.95;;
56343;SDS011;42245;42.058;24.700;2023-06-24T04:12:50;18.33;;;15.27;;
56343;SDS011;42245;42.058;24.700;2023-06-24T04:15:16;18.08;;;15.30;;
56343;SDS011;42245;42.058;24.700;2023-06-24T04:17:41;23.33;;;15.88;;
56343;SDS011;42245;42.058;24.700;2023-06-24T04:20:07;17.27;;;14.82;;
56343;SDS011;42245;42.058;24.700;2023-06-24T04:22:39;17.45;;;15.55;;
56343;SDS011;42245;42.058;24.700;2023-06-24T04:25:05;20.75;;;14.50;;
56343;SDS011;42245;42.058;24.700;2023-06-24T04:27:31;16.63;;;13.43;;
56343;SDS011;42245;42.058;24.700;2023-06-24T04:46:33;15.40;;;13.60;;
56343;SDS011;42245;42.058;24.700;2023-06-24T04:48:59;16.13;;;13.50;;
56343;SDS011;42245;42.058;24.700;2023-06-24T04:51:25;31.23;;;13.75;;
56343;SDS011;42245;42.058;24.700;2023-06-24T04:53:50;16.45;;;13.60;;
56343;SDS011;42245;42.058;24.700;2023-06-24T04:56:16;17.75;;;14.50;;
56343;SDS011;42245;42.058;24.700;2023-06-24T04:58:41;19.80;;;16.00;;
56343;SDS011;42245;42.058;24.700;2023-06-24T05:01:06;19.60;;;15.70;;
56343;SDS011;42245;42.058;24.700;2023-06-24T05:03:32;17.60;;;15.35;;
56343;SDS011;42245;42.058;24.700;2023-06-24T05:05:57;20.42;;;16.10;;
56343;SDS011;42245;42.058;24.700;2023-06-24T05:08:23;21.60;;;16.65;;
56343;SDS011;42245;42.058;24.700;2023-06-24T05:10:48;19.27;;;16.35;;
56343;SDS011;42245;42.058;24.700;2023-06-24T05:13:13;19.10;;;15.95;;
56343;SDS011;42245;42.058;24.700;2023-06-24T05:15:39;21.23;;;16.20;;
56343;SDS011;42245;42.058;24.700;2023-06-24T05:18:04;18.65;;;15.48;;
56343;SDS011;42245;42.058;24.700;2023-06-24T05:20:29;18.35;;;15.80;;
56343;SDS011;42245;42.058;24.700;2023-06-24T05:22:55;20.63;;;15.27;;
56343;SDS011;42245;42.058;24.700;2023-06-24T05:25:20;20.98;;;15.18;;
56343;SDS011;42245;42.058;24.700;2023-06-24T05:27:45;21.70;;;15.88;;
56343;SDS011;42245;42.058;24.700;2023-06-24T05:30:11;18.48;;;15.23;;
56343;SDS011;42245;42.058;24.700;2023-06-24T05:32:37;20.10;;;15.45;;
56343;SDS011;42245;42.058;24.700;2023-06-24T05:35:03;20.58;;;16.00;;
56343;SDS011;42245;42.058;24.700;2023-06-24T05:37:29;20.35;;;15.38;;
56343;SDS011;42245;42.058;24.700;2023-06-24T05:39:54;19.10;;;16.75;;
56343;SDS011;42245;42.058;24.700;2023-06-24T05:42:21;19.08;;;16.67;;
56343;SDS011;42245;42.058;24.700;2023-06-24T05:44:48;19.52;;;15.20;;
56343;SDS011;42245;42.058;24.700;2023-06-24T05:47:13;19.85;;;16.23;;
56343;SDS011;42245;42.058;24.700;2023-06-24T05:49:39;19.83;;;16.27;;
56343;SDS011;42245;42.058;24.700;2023-06-24T05:52:04;22.20;;;16.42;;
56343;SDS011;42245;42.058;24.700;2023-06-24T05:54:30;17.52;;;15.55;;
56343;SDS011;42245;42.058;24.700;2023-06-24T05:56:56;18.05;;;16.10;;
56343;SDS011;42245;42.058;24.700;2023-06-24T05:59:21;19.02;;;14.43;;
56343;SDS011;42245;42.058;24.700;2023-06-24T06:01:47;18.70;;;14.80;;
56343;SDS011;42245;42.058;24.700;2023-06-24T06:04:12;17.30;;;15.50;;
56343;SDS011;42245;42.058;24.700;2023-06-24T06:06:38;17.40;;;14.95;;
56343;SDS011;42245;42.058;24.700;2023-06-24T06:09:03;20.33;;;14.82;;
56343;SDS011;42245;42.058;24.700;2023-06-24T06:11:29;20.15;;;15.38;;
56343;SDS011;42245;42.058;24.700;2023-06-24T06:13:55;17.40;;;15.02;;
56343;SDS011;42245;42.058;24.700;2023-06-24T06:16:22;17.85;;;15.20;;
56343;SDS011;42245;42.058;24.700;2023-06-24T06:18:47;21.02;;;15.38;;
56343;SDS011;42245;42.058;24.700;2023-06-24T06:21:12;20.05;;;15.60;;
56343;SDS011;42245;42.058;24.700;2023-06-24T06:23:38;18.50;;;14.70;;
56343;SDS011;42245;42.058;24.700;2023-06-24T06:26:03;16.23;;;14.52;;
56343;SDS011;42245;42.058;24.700;2023-06-24T06:28:29;17.25;;;15.38;;
56343;SDS011;42245;42.058;24.700;2023-06-24T06:30:54;18.15;;;15.38;;
56343;SDS011;42245;42.058;24.700;2023-06-24T06:33:22;19.08;;;15.40;;
56343;SDS011;42245;42.058;24.700;2023-06-24T06:35:47;19.60;;;16.55;;
56343;SDS011;42245;42.058;24.700;2023-06-24T06:38:12;17.65;;;15.05;;
56343;SDS011;42245;42.058;24.700;2023-06-24T06:40:38;17.33;;;15.52;;
56343;SDS011;42245;42.058;24.700;2023-06-24T06:43:03;18.08;;;14.98;;
56343;SDS011;42245;42.058;24.700;2023-06-24T06:45:28;17.17;;;14.65;;
56343;SDS011;42245;42.058;24.700;2023-06-24T06:47:54;20.02;;;15.57;;
56343;SDS011;42245;42.058;24.700;2023-06-24T06:50:19;20.70;;;15.23;;
56343;SDS011;42245;42.058;24.700;2023-06-24T06:52:44;18.55;;;15.43;;
56343;SDS011;42245;42.058;24.700;2023-06-24T06:55:10;17.77;;;14.52;;
56343;SDS011;42245;42.058;24.700;2023-06-24T06:57:35;19.70;;;16.13;;
56343;SDS011;42245;42.058;24.700;2023-06-24T07:00:01;18.33;;;15.10;;
56343;SDS011;42245;42.058;24.700;2023-06-24T07:02:26;21.00;;;15.15;;
56343;SDS011;42245;42.058;24.700;2023-06-24T07:04:51;18.75;;;15.52;;
56343;SDS011;42245;42.058;24.700;2023-06-24T07:07:17;17.60;;;15.73;;
56343;SDS011;42245;42.058;24.700;2023-06-24T07:09:42;19.13;;;15.05;;
56343;SDS011;42245;42.058;24.700;2023-06-24T07:12:08;17.60;;;14.43;;
56343;SDS011;42245;42.058;24.700;2023-06-24T07:14:33;22.35;;;14.35;;
56343;SDS011;42245;42.058;24.700;2023-06-24T07:16:59;18.52;;;15.68;;
56343;SDS011;42245;42.058;24.700;2023-06-24T07:19:24;17.20;;;15.40;;
56343;SDS011;42245;42.058;24.700;2023-06-24T07:21:50;17.23;;;15.45;;
56343;SDS011;42245;42.058;24.700;2023-06-24T07:24:16;18.73;;;15.85;;
56343;SDS011;42245;42.058;24.700;2023-06-24T07:26:42;16.48;;;14.25;;
56343;SDS011;42245;42.058;24.700;2023-06-24T07:29:07;18.33;;;15.75;;
56343;SDS011;42245;42.058;24.700;2023-06-24T07:31:33;19.55;;;14.55;;
56343;SDS011;42245;42.058;24.700;2023-06-24T07:33:59;15.80;;;14.20;;
56343;SDS011;42245;42.058;24.700;2023-06-24T07:36:24;19.98;;;14.77;;
56343;SDS011;42245;42.058;24.700;2023-06-24T07:38:49;18.83;;;15.50;;
56343;SDS011;42245;42.058;24.700;2023-06-24T07:41:15;16.40;;;14.68;;
56343;SDS011;42245;42.058;24.700;2023-06-24T07:43:40;18.95;;;14.52;;
56343;SDS011;42245;42.058;24.700;2023-06-24T07:46:05;18.65;;;16.65;;
56343;SDS011;42245;42.058;24.700;2023-06-24T07:48:31;17.70;;;15.95;;
56343;SDS011;42245;42.058;24.700;2023-06-24T07:50:57;22.25;;;17.45;;
56343;SDS011;42245;42.058;24.700;2023-06-24T07:53:23;18.85;;;16.70;;
56343;SDS011;42245;42.058;24.700;2023-06-24T07:55:48;21.58;;;15.02;;
56343;SDS011;42245;42.058;24.700;2023-06-24T07:58:14;17.90;;;15.88;;
56343;SDS011;42245;42.058;24.700;2023-06-24T08:00:39;19.65;;;17.55;;
56343;SDS011;42245;42.058;24.700;2023-06-24T08:03:04;19.33;;;15.88;;
56343;SDS011;42245;42.058;24.700;2023-06-24T08:05:30;19.73;;;16.48;;
56343;SDS011;42245;42.058;24.700;2023-06-24T08:07:55;21.77;;;16.48;;
56343;SDS011;42245;42.058;24.700;2023-06-24T08:10:20;21.55;;;16.88;;
56343;SDS011;42245;42.058;24.700;2023-06-24T08:12:46;19.17;;;16.60;;
56343;SDS011;42245;42.058;24.700;2023-06-24T08:15:12;18.60;;;16.70;;
56343;SDS011;42245;42.058;24.700;2023-06-24T08:17:38;18.33;;;16.10;;
56343;SDS011;42245;42.058;24.700;2023-06-24T08:20:03;24.63;;;15.80;;
56343;SDS011;42245;42.058;24.700;2023-06-24T08:22:29;20.50;;;17.08;;
56343;SDS011;42245;42.058;24.700;2023-06-24T08:24:55;16.33;;;14.52;;
56343;SDS011;42245;42.058;24.700;2023-06-24T08:27:20;19.23;;;15.45;;
56343;SDS011;42245;42.058;24.700;2023-06-24T08:29:46;22.02;;;16.67;;
56343;SDS011;42245;42.058;24.700;2023-06-24T08:32:11;18.38;;;15.40;;
56343;SDS011;42245;42.058;24.700;2023-06-24T08:34:36;18.88;;;15.40;;
56343;SDS011;42245;42.058;24.700;2023-06-24T08:37:02;17.83;;;16.00;;
56343;SDS011;42245;42.058;24.700;2023-06-24T08:39:28;16.90;;;14.88;;
56343;SDS011;42245;42.058;24.700;2023-06-24T08:41:53;16.42;;;14.75;;
56343;SDS011;42245;42.058;24.700;2023-06-24T08:44:19;18.45;;;15.65;;
56343;SDS011;42245;42.058;24.700;2023-06-24T08:46:44;17.45;;;15.77;;
56343;SDS011;42245;42.058;24.700;2023-06-24T08:49:17;18.25;;;14.93;;
56343;SDS011;42245;42.058;24.700;2023-06-24T08:51:46;19.77;;;15.02;;
56343;SDS011;42245;42.058;24.700;2023-06-24T08:54:14;18.55;;;15.35;;
56343;SDS011;42245;42.058;24.700;2023-06-24T08:56:40;19.73;;;15.57;;
56343;SDS011;42245;42.058;24.700;2023-06-24T08:59:06;21.67;;;15.23;;
56343;SDS011;42245;42.058;24.700;2023-06-24T09:01:31;16.35;;;14.63;;
56343;SDS011;42245;42.058;24.700;2023-06-24T09:03:57;22.25;;;14.35;;
56343;SDS011;42245;42.058;24.700;2023-06-24T09:06:22;16.05;;;14.35;;
56343;SDS011;42245;42.058;24.700;2023-06-24T09:08:54;17.08;;;15.20;;
56343;SDS011;42245;42.058;24.700;2023-06-24T09:11:26;17.27;;;15.32;;
56343;SDS011;42245;42.058;24.700;2023-06-24T09:13:56;16.60;;;13.73;;
56343;SDS011;42245;42.058;24.700;2023-06-24T09:16:22;17.70;;;14.20;;
56343;SDS011;42245;42.058;24.700;2023-06-24T09:18:49;16.27;;;14.70;;
56343;SDS011;42245;42.058;24.700;2023-06-24T09:21:22;16.25;;;14.55;;
56343;SDS011;42245;42.058;24.700;2023-06-24T09:23:54;18.38;;;15.15;;
56343;SDS011;42245;42.058;24.700;2023-06-24T09:26:29;17.10;;;14.32;;
56343;SDS011;42245;42.058;24.700;2023-06-24T09:28:57;17.42;;;14.30;;
56343;SDS011;42245;42.058;24.700;2023-06-24T09:31:23;15.40;;;13.82;;
56343;SDS011;42245;42.058;24.700;2023-06-24T09:33:48;18.48;;;14.10;;
56343;SDS011;42245;42.058;24.700;2023-06-24T09:36:14;19.75;;;15.05;;
56343;SDS011;42245;42.058;24.700;2023-06-24T09:38:41;16.48;;;14.10;;
56343;SDS011;42245;42.058;24.700;2023-06-24T09:41:08;17.67;;;13.80;;
56343;SDS011;42245;42.058;24.700;2023-06-24T09:43:34;20.55;;;14.63;;
56343;SDS011;42245;42.058;24.700;2023-06-24T09:46:01;17.33;;;13.30;;
56343;SDS011;42245;42.058;24.700;2023-06-24T09:48:27;16.48;;;13.57;;
56343;SDS011;42245;42.058;24.700;2023-06-24T09:50:53;16.10;;;14.48;;
56343;SDS011;42245;42.058;24.700;2023-06-24T09:53:20;17.60;;;14.00;;
56343;SDS011;42245;42.058;24.700;2023-06-24T09:55:46;17.42;;;15.60;;
56343;SDS011;42245;42.058;24.700;2023-06-24T09:58:12;24.42;;;13.88;;
56343;SDS011;42245;42.058;24.700;2023-06-24T10:00:38;14.13;;;12.48;;
56343;SDS011;42245;42.058;24.700;2023-06-24T10:03:04;17.08;;;12.80;;
56343;SDS011;42245;42.058;24.700;2023-06-24T10:05:29;15.85;;;13.07;;
56343;SDS011;42245;42.058;24.700;2023-06-24T10:07:55;16.45;;;12.68;;
56343;SDS011;42245;42.058;24.700;2023-06-24T10:10:20;19.27;;;13.82;;
56343;SDS011;42245;42.058;24.700;2023-06-24T10:12:46;16.42;;;13.07;;
56343;SDS011;42245;42.058;24.700;2023-06-24T10:15:11;14.70;;;12.40;;
56343;SDS011;42245;42.058;24.700;2023-06-24T10:17:37;16.33;;;11.70;;
56343;SDS011;42245;42.058;24.700;2023-06-24T10:20:03;17.63;;;11.50;;
56343;SDS011;42245;42.058;24.700;2023-06-24T10:22:31;17.83;;;11.93;;
56343;SDS011;42245;42.058;24.700;2023-06-24T10:25:00;13.70;;;11.75;;
56343;SDS011;42245;42.058;24.700;2023-06-24T10:27:27;14.15;;;12.57;;
56343;SDS011;42245;42.058;24.700;2023-06-24T10:29:57;16.20;;;12.20;;
56343;SDS011;42245;42.058;24.700;2023-06-24T10:32:28;15.38;;;12.23;;
56343;SDS011;42245;42.058;24.700;2023-06-24T10:35:05;14.80;;;12.65;;
56343;SDS011;42245;42.058;24.700;2023-06-24T10:37:32;14.40;;;12.38;;
56343;SDS011;42245;42.058;24.700;2023-06-24T10:39:58;17.35;;;13.38;;
56343;SDS011;42245;42.058;24.700;2023-06-24T10:45:01;17.10;;;11.35;;
56343;SDS011;42245;42.058;24.700;2023-06-24T10:47:48;16.08;;;12.57;;
56343;SDS011;42245;42.058;24.700;2023-06-24T10:50:18;15.20;;;13.00;;
56343;SDS011;42245;42.058;24.700;2023-06-24T10:52:45;13.98;;;12.48;;
56343;SDS011;42245;42.058;24.700;2023-06-24T10:55:15;19.33;;;13.55;;
56343;SDS011;42245;42.058;24.700;2023-06-24T10:57:41;15.23;;;13.48;;
56343;SDS011;42245;42.058;24.700;2023-06-24T11:00:07;14.23;;;12.73;;
56343;SDS011;42245;42.058;24.700;2023-06-24T11:02:33;14.32;;;12.68;;
56343;SDS011;42245;42.058;24.700;2023-06-24T11:04:59;15.13;;;12.07;;
56343;SDS011;42245;42.058;24.700;2023-06-24T11:07:26;13.95;;;12.55;;
56343;SDS011;42245;42.058;24.700;2023-06-24T11:09:56;20.92;;;13.27;;
56343;SDS011;42245;42.058;24.700;2023-06-24T11:12:24;13.48;;;12.02;;
56343;SDS011;42245;42.058;24.700;2023-06-24T11:14:51;18.30;;;12.77;;
56343;SDS011;42245;42.058;24.700;2023-06-24T11:17:19;15.38;;;12.73;;
56343;SDS011;42245;42.058;24.700;2023-06-24T11:19:45;15.82;;;12.30;;
56343;SDS011;42245;42.058;24.700;2023-06-24T11:22:10;14.05;;;12.63;;
56343;SDS011;42245;42.058;24.700;2023-06-24T11:24:35;18.67;;;12.75;;
56343;SDS011;42245;42.058;24.700;2023-06-24T11:27:01;14.40;;;12.95;;
56343;SDS011;42245;42.058;24.700;2023-06-24T11:29:30;13.75;;;12.10;;
56343;SDS011;42245;42.058;24.700;2023-06-24T11:31:57;14.15;;;11.85;;
56343;SDS011;42245;42.058;24.700;2023-06-24T11:34:22;13.50;;;11.70;;
56343;SDS011;42245;42.058;24.700;2023-06-24T11:36:48;15.50;;;11.90;;
56343;SDS011;42245;42.058;24.700;2023-06-24T11:39:20;14.13;;;11.95;;
56343;SDS011;42245;42.058;24.700;2023-06-24T11:41:50;14.10;;;12.70;;
56343;SDS011;42245;42.058;24.700;2023-06-24T11:44:19;13.77;;;12.38;;
56343;SDS011;42245;42.058;24.700;2023-06-24T11:46:45;16.83;;;12.57;;
56343;SDS011;42245;42.058;24.700;2023-06-24T11:49:11;16.23;;;12.65;;
56343;SDS011;42245;42.058;24.700;2023-06-24T11:51:37;13.90;;;12.60;;
56343;SDS011;42245;42.058;24.700;2023-06-24T11:54:14;13.65;;;12.18;;
56343;SDS011;42245;42.058;24.700;2023-06-24T11:56:41;14.23;;;12.30;;
56343;SDS011;42245;42.058;24.700;2023-06-24T11:59:15;16.88;;;12.80;;
56343;SDS011;42245;42.058;24.700;2023-06-24T12:01:45;14.15;;;12.18;;
56343;SDS011;42245;42.058;24.700;2023-06-24T12:04:32;13.73;;;11.63;;
56343;SDS011;42245;42.058;24.700;2023-06-24T12:06:58;13.45;;;11.80;;
56343;SDS011;42245;42.058;24.700;2023-06-24T12:09:24;13.02;;;11.73;;
56343;SDS011;42245;42.058;24.700;2023-06-24T12:11:50;13.52;;;11.18;;
56343;SDS011;42245;42.058;24.700;2023-06-24T12:14:16;14.35;;;12.15;;
56343;SDS011;42245;42.058;24.700;2023-06-24T12:16:41;11.65;;;10.55;;
56343;SDS011;42245;42.058;24.700;2023-06-24T12:19:07;12.10;;;10.80;;
56343;SDS011;42245;42.058;24.700;2023-06-24T12:21:33;12.00;;;10.80;;
56343;SDS011;42245;42.058;24.700;2023-06-24T12:23:59;11.50;;;10.38;;
56343;SDS011;42245;42.058;24.700;2023-06-24T12:26:24;14.05;;;10.52;;
56343;SDS011;42245;42.058;24.700;2023-06-24T12:28:50;14.85;;;10.50;;
56343;SDS011;42245;42.058;24.700;2023-06-24T12:31:15;14.27;;;10.52;;
56343;SDS011;42245;42.058;24.700;2023-06-24T12:33:41;12.27;;;10.98;;
56343;SDS011;42245;42.058;24.700;2023-06-24T12:36:06;11.15;;;10.15;;
56343;SDS011;42245;42.058;24.700;2023-06-24T12:38:32;13.23;;;10.20;;
56343;SDS011;42245;42.058;24.700;2023-06-24T12:40:57;12.68;;;9.90;;
56343;SDS011;42245;42.058;24.700;2023-06-24T12:43:23;11.13;;;10.13;;
56343;SDS011;42245;42.058;24.700;2023-06-24T12:45:48;11.93;;;9.90;;
56343;SDS011;42245;42.058;24.700;2023-06-24T12:48:16;11.85;;;10.48;;
56343;SDS011;42245;42.058;24.700;2023-06-24T12:50:41;11.07;;;10.02;;
56343;SDS011;42245;42.058;24.700;2023-06-24T12:53:06;10.73;;;9.73;;
56343;SDS011;42245;42.058;24.700;2023-06-24T12:55:32;12.07;;;9.73;;
56343;SDS011;42245;42.058;24.700;2023-06-24T12:57:57;10.02;;;9.07;;
56343;SDS011;42245;42.058;24.700;2023-06-24T13:00:23;10.60;;;9.50;;
56343;SDS011;42245;42.058;24.700;2023-06-24T13:02:49;12.02;;;9.75;;
56343;SDS011;42245;42.058;24.700;2023-06-24T13:05:15;10.93;;;9.90;;
56343;SDS011;42245;42.058;24.700;2023-06-24T13:07:40;11.48;;;10.00;;
56343;SDS011;42245;42.058;24.700;2023-06-24T13:10:06;11.23;;;10.13;;
56343;SDS011;42245;42.058;24.700;2023-06-24T13:12:32;11.25;;;10.07;;
56343;SDS011;42245;42.058;24.700;2023-06-24T13:14:58;13.23;;;9.85;;
56343;SDS011;42245;42.058;24.700;2023-06-24T13:17:23;13.98;;;10.57;;
56343;SDS011;42245;42.058;24.700;2023-06-24T13:19:49;10.93;;;9.93;;
56343;SDS011;42245;42.058;24.700;2023-06-24T13:22:15;11.95;;;9.60;;
56343;SDS011;42245;42.058;24.700;2023-06-24T13:24:40;12.45;;;9.60;;
56343;SDS011;42245;42.058;24.700;2023-06-24T13:27:06;10.18;;;9.02;;
56343;SDS011;42245;42.058;24.700;2023-06-24T13:29:32;12.05;;;9.50;;
56343;SDS011;42245;42.058;24.700;2023-06-24T13:31:57;10.77;;;9.70;;
56343;SDS011;42245;42.058;24.700;2023-06-24T13:34:22;11.10;;;9.90;;
56343;SDS011;42245;42.058;24.700;2023-06-24T13:36:48;10.52;;;9.52;;
56343;SDS011;42245;42.058;24.700;2023-06-24T13:39:14;11.57;;;10.02;;
56343;SDS011;42245;42.058;24.700;2023-06-24T13:41:41;12.18;;;10.75;;
56343;SDS011;42245;42.058;24.700;2023-06-24T13:44:07;12.85;;;11.02;;
56343;SDS011;42245;42.058;24.700;2023-06-24T13:46:33;16.45;;;11.30;;
56343;SDS011;42245;42.058;24.700;2023-06-24T13:48:58;13.65;;;10.57;;
56343;SDS011;42245;42.058;24.700;2023-06-24T13:51:24;13.82;;;11.10;;
56343;SDS011;42245;42.058;24.700;2023-06-24T13:53:51;11.88;;;10.70;;
56343;SDS011;42245;42.058;24.700;2023-06-24T13:56:17;14.45;;;10.15;;
56343;SDS011;42245;42.058;24.700;2023-06-24T13:58:43;13.13;;;10.27;;
56343;SDS011;42245;42.058;24.700;2023-06-24T14:01:09;11.90;;;10.77;;
56343;SDS011;42245;42.058;24.700;2023-06-24T14:03:34;13.45;;;10.73;;
56343;SDS011;42245;42.058;24.700;2023-06-24T14:06:00;11.77;;;10.32;;
56343;SDS011;42245;42.058;24.700;2023-06-24T14:08:27;13.25;;;10.60;;
56343;SDS011;42245;42.058;24.700;2023-06-24T14:10:53;12.43;;;10.77;;
56343;SDS011;42245;42.058;24.700;2023-06-24T14:13:19;11.55;;;10.40;;
56343;SDS011;42245;42.058;24.700;2023-06-24T14:15:45;11.48;;;10.25;;
56343;SDS011;42245;42.058;24.700;2023-06-24T14:18:10;12.75;;;9.80;;
56343;SDS011;42245;42.058;24.700;2023-06-24T14:20:36;11.75;;;9.63;;
56343;SDS011;42245;42.058;24.700;2023-06-24T14:23:01;14.80;;;10.65;;
56343;SDS011;42245;42.058;24.700;2023-06-24T14:25:26;11.23;;;9.63;;
56343;SDS011;42245;42.058;24.700;2023-06-24T14:27:52;12.27;;;10.15;;
56343;SDS011;42245;42.058;24.700;2023-06-24T14:30:17;13.10;;;10.02;;
56343;SDS011;42245;42.058;24.700;2023-06-24T14:32:43;13.23;;;10.27;;
56343;SDS011;42245;42.058;24.700;2023-06-24T14:35:08;12.85;;;10.52;;
56343;SDS011;42245;42.058;24.700;2023-06-24T14:37:34;18.35;;;11.63;;
56343;SDS011;42245;42.058;24.700;2023-06-24T14:39:59;17.00;;;11.45;;